sensor_id;sensor_type;location;lat;lon;timestamp;P1;durP1;ratioP1;P2;durP2;ratioP2
1701;SDS011;848;48.354;10.064;2023-05-07T00:00:46;10.45;;;5.00;;
1701;SDS011;848;48.354;10.064;2023-05-07T00:03:14;9.57;;;5.47;;
1701;SDS011;848;48.354;10.064;2023-05-07T00:05:42;8.75;;;5.03;;
1701;SDS011;848;48.354;10.064;2023-05-07T00:08:09;9.63;;;5.05;;
1701;SDS011;848;48.354;10.064;2023-05-07T00:10:37;9.32;;;4.57;;
1701;SDS011;848;48.354;10.064;2023-05-07T00:13:04;9.02;;;4.13;;
1701;SDS011;848;48.354;10.064;2023-05-07T00:15:30;8.57;;;4.60;;
1701;SDS011;848;48.354;10.064;2023-05-07T00:17:57;11.82;;;5.00;;
1701;SDS011;848;48.354;10.064;2023-05-07T00:20:24;12.27;;;6.20;;
1701;SDS011;848;48.354;10.064;2023-05-07T00:22:53;11.25;;;6.25;;
1701;SDS011;848;48.354;10.064;2023-05-07T00:25:20;10.73;;;5.57;;
1701;SDS011;848;48.354;10.064;2023-05-07T00:27:46;10.45;;;5.88;;
1701;SDS011;848;48.354;10.064;2023-05-07T00:30:13;11.70;;;5.45;;
1701;SDS011;848;48.354;10.064;2023-05-07T00:32:41;10.50;;;5.35;;
1701;SDS011;848;48.354;10.064;2023-05-07T00:35:10;10.30;;;6.10;;
1701;SDS011;848;48.354;10.064;2023-05-07T00:37:37;10.57;;;6.18;;
1701;SDS011;848;48.354;10.064;2023-05-07T00:40:06;10.23;;;5.57;;
1701;SDS011;848;48.354;10.064;2023-05-07T00:42:34;9.55;;;4.88;;
1701;SDS011;848;48.354;10.064;2023-05-07T00:45:01;10.48;;;5.20;;
1701;SDS011;848;48.354;10.064;2023-05-07T00:47:29;9.70;;;5.22;;
1701;SDS011;848;48.354;10.064;2023-05-07T00:49:56;10.88;;;5.00;;
1701;SDS011;848;48.354;10.064;2023-05-07T00:52:23;9.80;;;4.85;;
1701;SDS011;848;48.354;10.064;2023-05-07T00:54:52;10.35;;;4.03;;
1701;SDS011;848;48.354;10.064;2023-05-07T00:57:21;8.05;;;4.25;;
1701;SDS011;848;48.354;10.064;2023-05-07T00:59:50;10.13;;;5.10;;
1701;SDS011;848;48.354;10.064;2023-05-07T01:02:18;7.93;;;4.18;;
1701;SDS011;848;48.354;10.064;2023-05-07T01:04:45;10.50;;;5.13;;
1701;SDS011;848;48.354;10.064;2023-05-07T01:07:12;12.25;;;5.60;;
1701;SDS011;848;48.354;10.064;2023-05-07T01:09:39;10.20;;;5.60;;
1701;SDS011;848;48.354;10.064;2023-05-07T01:12:06;10.32;;;5.30;;
1701;SDS011;848;48.354;10.064;2023-05-07T01:14:35;10.05;;;5.25;;
1701;SDS011;848;48.354;10.064;2023-05-07T01:17:02;9.90;;;4.70;;
1701;SDS011;848;48.354;10.064;2023-05-07T01:19:29;13.98;;;5.90;;
1701;SDS011;848;48.354;10.064;2023-05-07T01:22:01;9.85;;;5.28;;
1701;SDS011;848;48.354;10.064;2023-05-07T01:24:31;22.23;;;10.38;;
1701;SDS011;848;48.354;10.064;2023-05-07T01:26:59;17.65;;;8.63;;
1701;SDS011;848;48.354;10.064;2023-05-07T01:29:27;16.02;;;9.02;;
1701;SDS011;848;48.354;10.064;2023-05-07T01:31:54;13.00;;;8.05;;
1701;SDS011;848;48.354;10.064;2023-05-07T01:34:24;10.70;;;6.68;;
1701;SDS011;848;48.354;10.064;2023-05-07T01:36:53;12.20;;;6.85;;
1701;SDS011;848;48.354;10.064;2023-05-07T01:39:23;12.38;;;6.10;;
1701;SDS011;848;48.354;10.064;2023-05-07T01:41:53;15.07;;;6.43;;
1701;SDS011;848;48.354;10.064;2023-05-07T01:44:21;11.02;;;6.50;;
1701;SDS011;848;48.354;10.064;2023-05-07T01:46:49;14.45;;;7.00;;
1701;SDS011;848;48.354;10.064;2023-05-07T01:49:16;10.65;;;5.90;;
1701;SDS011;848;48.354;10.064;2023-05-07T01:51:43;14.90;;;6.05;;
1701;SDS011;848;48.354;10.064;2023-05-07T01:54:10;14.13;;;8.15;;
1701;SDS011;848;48.354;10.064;2023-05-07T01:56:37;31.00;;;17.77;;
1701;SDS011;848;48.354;10.064;2023-05-07T01:59:05;14.20;;;8.75;;
1701;SDS011;848;48.354;10.064;2023-05-07T02:01:32;12.90;;;7.57;;
1701;SDS011;848;48.354;10.064;2023-05-07T02:03:59;11.68;;;6.93;;
1701;SDS011;848;48.354;10.064;2023-05-07T02:06:26;13.45;;;6.60;;
1701;SDS011;848;48.354;10.064;2023-05-07T02:08:53;9.85;;;5.60;;
1701;SDS011;848;48.354;10.064;2023-05-07T02:11:20;13.30;;;6.90;;
1701;SDS011;848;48.354;10.064;2023-05-07T02:13:47;13.40;;;6.95;;
1701;SDS011;848;48.354;10.064;2023-05-07T02:16:15;13.23;;;6.28;;
1701;SDS011;848;48.354;10.064;2023-05-07T02:18:42;11.63;;;6.25;;
1701;SDS011;848;48.354;10.064;2023-05-07T02:21:09;10.32;;;5.78;;
1701;SDS011;848;48.354;10.064;2023-05-07T02:23:36;11.52;;;6.15;;
1701;SDS011;848;48.354;10.064;2023-05-07T02:26:03;12.02;;;6.40;;
1701;SDS011;848;48.354;10.064;2023-05-07T02:28:30;11.02;;;6.65;;
1701;SDS011;848;48.354;10.064;2023-05-07T02:30:57;12.45;;;6.28;;
1701;SDS011;848;48.354;10.064;2023-05-07T02:33:26;12.43;;;7.68;;
1701;SDS011;848;48.354;10.064;2023-05-07T02:35:53;11.00;;;6.00;;
1701;SDS011;848;48.354;10.064;2023-05-07T02:38:21;10.75;;;6.38;;
1701;SDS011;848;48.354;10.064;2023-05-07T02:40:48;10.60;;;6.45;;
1701;SDS011;848;48.354;10.064;2023-05-07T02:43:15;12.43;;;6.40;;
1701;SDS011;848;48.354;10.064;2023-05-07T02:45:42;12.25;;;6.57;;
1701;SDS011;848;48.354;10.064;2023-05-07T02:48:09;14.18;;;6.85;;
1701;SDS011;848;48.354;10.064;2023-05-07T02:50:37;10.73;;;5.93;;
1701;SDS011;848;48.354;10.064;2023-05-07T02:53:04;21.40;;;6.72;;
1701;SDS011;848;48.354;10.064;2023-05-07T02:55:31;12.43;;;7.13;;
1701;SDS011;848;48.354;10.064;2023-05-07T02:57:58;12.32;;;6.63;;
1701;SDS011;848;48.354;10.064;2023-05-07T03:00:25;10.18;;;6.03;;
1701;SDS011;848;48.354;10.064;2023-05-07T03:02:52;13.60;;;6.38;;
1701;SDS011;848;48.354;10.064;2023-05-07T03:05:19;11.65;;;5.63;;
1701;SDS011;848;48.354;10.064;2023-05-07T03:07:47;12.02;;;7.20;;
1701;SDS011;848;48.354;10.064;2023-05-07T03:10:14;11.00;;;5.68;;
1701;SDS011;848;48.354;10.064;2023-05-07T03:12:41;10.90;;;6.28;;
1701;SDS011;848;48.354;10.064;2023-05-07T03:15:08;11.15;;;6.22;;
1701;SDS011;848;48.354;10.064;2023-05-07T03:17:36;10.68;;;6.03;;
1701;SDS011;848;48.354;10.064;2023-05-07T03:20:03;13.18;;;6.60;;
1701;SDS011;848;48.354;10.064;2023-05-07T03:22:32;11.98;;;6.63;;
1701;SDS011;848;48.354;10.064;2023-05-07T03:25:00;15.73;;;8.50;;
1701;SDS011;848;48.354;10.064;2023-05-07T03:27:27;26.17;;;17.92;;
1701;SDS011;848;48.354;10.064;2023-05-07T03:29:54;22.30;;;16.38;;
1701;SDS011;848;48.354;10.064;2023-05-07T03:32:20;20.35;;;12.82;;
1701;SDS011;848;48.354;10.064;2023-05-07T03:34:47;15.05;;;8.43;;
1701;SDS011;848;48.354;10.064;2023-05-07T03:37:14;13.20;;;8.75;;
1701;SDS011;848;48.354;10.064;2023-05-07T03:39:41;17.00;;;10.80;;
1701;SDS011;848;48.354;10.064;2023-05-07T03:42:09;17.30;;;10.60;;
1701;SDS011;848;48.354;10.064;2023-05-07T03:44:36;17.42;;;11.95;;
1701;SDS011;848;48.354;10.064;2023-05-07T03:47:03;17.20;;;11.98;;
1701;SDS011;848;48.354;10.064;2023-05-07T03:49:30;19.80;;;11.73;;
1701;SDS011;848;48.354;10.064;2023-05-07T03:51:57;18.85;;;11.48;;
1701;SDS011;848;48.354;10.064;2023-05-07T03:54:24;19.63;;;12.10;;
1701;SDS011;848;48.354;10.064;2023-05-07T03:56:51;17.00;;;12.73;;
1701;SDS011;848;48.354;10.064;2023-05-07T03:59:19;22.38;;;12.88;;
1701;SDS011;848;48.354;10.064;2023-05-07T04:01:46;17.17;;;11.10;;
1701;SDS011;848;48.354;10.064;2023-05-07T04:04:13;24.23;;;9.32;;
1701;SDS011;848;48.354;10.064;2023-05-07T04:06:40;14.65;;;9.25;;
1701;SDS011;848;48.354;10.064;2023-05-07T04:09:07;13.68;;;8.10;;
1701;SDS011;848;48.354;10.064;2023-05-07T04:11:35;16.90;;;8.57;;
1701;SDS011;848;48.354;10.064;2023-05-07T04:14:02;11.52;;;7.30;;
1701;SDS011;848;48.354;10.064;2023-05-07T04:16:30;13.43;;;6.60;;
1701;SDS011;848;48.354;10.064;2023-05-07T04:18:57;10.27;;;5.20;;
1701;SDS011;848;48.354;10.064;2023-05-07T04:21:24;9.88;;;5.30;;
1701;SDS011;848;48.354;10.064;2023-05-07T04:23:51;10.25;;;5.53;;
1701;SDS011;848;48.354;10.064;2023-05-07T04:26:18;10.48;;;5.40;;
1701;SDS011;848;48.354;10.064;2023-05-07T04:28:46;13.95;;;5.40;;
1701;SDS011;848;48.354;10.064;2023-05-07T04:31:13;11.13;;;6.13;;
1701;SDS011;848;48.354;10.064;2023-05-07T04:33:41;10.50;;;6.53;;
1701;SDS011;848;48.354;10.064;2023-05-07T04:36:08;11.05;;;6.32;;
1701;SDS011;848;48.354;10.064;2023-05-07T04:38:35;9.23;;;5.55;;
1701;SDS011;848;48.354;10.064;2023-05-07T04:41:04;9.50;;;5.97;;
1701;SDS011;848;48.354;10.064;2023-05-07T04:43:32;11.23;;;6.30;;
1701;SDS011;848;48.354;10.064;2023-05-07T04:45:59;15.18;;;5.78;;
1701;SDS011;848;48.354;10.064;2023-05-07T04:48:26;10.18;;;5.70;;
1701;SDS011;848;48.354;10.064;2023-05-07T04:50:55;10.30;;;5.80;;
1701;SDS011;848;48.354;10.064;2023-05-07T04:53:22;11.50;;;5.40;;
1701;SDS011;848;48.354;10.064;2023-05-07T04:55:49;9.57;;;5.05;;
1701;SDS011;848;48.354;10.064;2023-05-07T04:58:21;13.30;;;5.70;;
1701;SDS011;848;48.354;10.064;2023-05-07T05:00:48;12.98;;;6.13;;
1701;SDS011;848;48.354;10.064;2023-05-07T05:03:15;9.57;;;5.43;;
1701;SDS011;848;48.354;10.064;2023-05-07T05:05:42;10.45;;;6.22;;
1701;SDS011;848;48.354;10.064;2023-05-07T05:08:11;10.85;;;6.15;;
1701;SDS011;848;48.354;10.064;2023-05-07T05:10:38;13.85;;;6.75;;
1701;SDS011;848;48.354;10.064;2023-05-07T05:13:06;11.75;;;5.85;;
1701;SDS011;848;48.354;10.064;2023-05-07T05:15:33;12.70;;;6.50;;
1701;SDS011;848;48.354;10.064;2023-05-07T05:18:00;10.55;;;6.43;;
1701;SDS011;848;48.354;10.064;2023-05-07T05:20:26;10.68;;;6.22;;
1701;SDS011;848;48.354;10.064;2023-05-07T05:22:54;12.63;;;6.95;;
1701;SDS011;848;48.354;10.064;2023-05-07T05:25:22;12.23;;;6.57;;
1701;SDS011;848;48.354;10.064;2023-05-07T05:27:49;11.27;;;5.80;;
1701;SDS011;848;48.354;10.064;2023-05-07T05:30:16;12.30;;;6.50;;
1701;SDS011;848;48.354;10.064;2023-05-07T05:32:42;10.93;;;6.30;;
1701;SDS011;848;48.354;10.064;2023-05-07T05:35:09;10.20;;;6.07;;
1701;SDS011;848;48.354;10.064;2023-05-07T05:37:36;10.80;;;6.40;;
1701;SDS011;848;48.354;10.064;2023-05-07T05:40:03;12.02;;;6.90;;
1701;SDS011;848;48.354;10.064;2023-05-07T05:42:32;11.60;;;6.35;;
1701;SDS011;848;48.354;10.064;2023-05-07T05:44:59;11.07;;;6.03;;
1701;SDS011;848;48.354;10.064;2023-05-07T05:47:26;10.05;;;6.30;;
1701;SDS011;848;48.354;10.064;2023-05-07T05:49:53;11.02;;;6.80;;
1701;SDS011;848;48.354;10.064;2023-05-07T05:52:20;11.40;;;5.95;;
1701;SDS011;848;48.354;10.064;2023-05-07T05:54:48;11.40;;;6.95;;
1701;SDS011;848;48.354;10.064;2023-05-07T05:57:15;10.60;;;5.72;;
1701;SDS011;848;48.354;10.064;2023-05-07T05:59:44;11.25;;;6.72;;
1701;SDS011;848;48.354;10.064;2023-05-07T06:02:12;11.45;;;5.60;;
1701;SDS011;848;48.354;10.064;2023-05-07T06:04:39;12.80;;;6.80;;
1701;SDS011;848;48.354;10.064;2023-05-07T06:07:07;11.30;;;6.05;;
1701;SDS011;848;48.354;10.064;2023-05-07T06:09:34;12.70;;;6.80;;
1701;SDS011;848;48.354;10.064;2023-05-07T06:12:01;11.20;;;6.35;;
1701;SDS011;848;48.354;10.064;2023-05-07T06:14:28;11.23;;;6.03;;
1701;SDS011;848;48.354;10.064;2023-05-07T06:16:56;10.75;;;5.60;;
1701;SDS011;848;48.354;10.064;2023-05-07T06:19:23;10.32;;;5.80;;
1701;SDS011;848;48.354;10.064;2023-05-07T06:21:51;12.35;;;7.78;;
1701;SDS011;848;48.354;10.064;2023-05-07T06:24:18;12.95;;;6.38;;
1701;SDS011;848;48.354;10.064;2023-05-07T06:26:45;11.60;;;6.72;;
1701;SDS011;848;48.354;10.064;2023-05-07T06:29:12;9.88;;;6.13;;
1701;SDS011;848;48.354;10.064;2023-05-07T06:31:39;17.98;;;7.13;;
1701;SDS011;848;48.354;10.064;2023-05-07T06:34:07;12.25;;;7.00;;
1701;SDS011;848;48.354;10.064;2023-05-07T06:36:34;9.95;;;6.25;;
1701;SDS011;848;48.354;10.064;2023-05-07T06:39:01;11.98;;;6.95;;
1701;SDS011;848;48.354;10.064;2023-05-07T06:41:28;11.98;;;8.05;;
1701;SDS011;848;48.354;10.064;2023-05-07T06:43:54;11.48;;;6.47;;
1701;SDS011;848;48.354;10.064;2023-05-07T06:46:21;17.02;;;8.18;;
1701;SDS011;848;48.354;10.064;2023-05-07T06:48:48;14.07;;;8.25;;
1701;SDS011;848;48.354;10.064;2023-05-07T06:51:17;11.88;;;7.75;;
1701;SDS011;848;48.354;10.064;2023-05-07T06:53:43;11.32;;;6.97;;
1701;SDS011;848;48.354;10.064;2023-05-07T06:56:10;13.25;;;8.27;;
1701;SDS011;848;48.354;10.064;2023-05-07T06:58:37;11.00;;;7.30;;
1701;SDS011;848;48.354;10.064;2023-05-07T07:01:04;12.57;;;8.02;;
1701;SDS011;848;48.354;10.064;2023-05-07T07:03:31;11.25;;;6.70;;
1701;SDS011;848;48.354;10.064;2023-05-07T07:05:58;11.65;;;7.07;;
1701;SDS011;848;48.354;10.064;2023-05-07T07:08:28;11.40;;;7.28;;
1701;SDS011;848;48.354;10.064;2023-05-07T07:10:55;10.88;;;7.40;;
1701;SDS011;848;48.354;10.064;2023-05-07T07:13:22;12.10;;;7.13;;
1701;SDS011;848;48.354;10.064;2023-05-07T07:15:49;14.05;;;8.38;;
1701;SDS011;848;48.354;10.064;2023-05-07T07:18:16;12.98;;;7.70;;
1701;SDS011;848;48.354;10.064;2023-05-07T07:20:42;10.15;;;7.03;;
1701;SDS011;848;48.354;10.064;2023-05-07T07:23:10;11.88;;;7.30;;
1701;SDS011;848;48.354;10.064;2023-05-07T07:25:38;13.02;;;7.05;;
1701;SDS011;848;48.354;10.064;2023-05-07T07:28:05;12.73;;;7.53;;
1701;SDS011;848;48.354;10.064;2023-05-07T07:30:32;11.38;;;7.00;;
1701;SDS011;848;48.354;10.064;2023-05-07T07:32:59;19.55;;;7.45;;
1701;SDS011;848;48.354;10.064;2023-05-07T07:35:28;11.18;;;7.70;;
1701;SDS011;848;48.354;10.064;2023-05-07T07:37:55;12.25;;;7.70;;
1701;SDS011;848;48.354;10.064;2023-05-07T07:40:22;15.02;;;7.03;;
1701;SDS011;848;48.354;10.064;2023-05-07T07:42:51;13.00;;;7.75;;
1701;SDS011;848;48.354;10.064;2023-05-07T07:45:18;12.93;;;7.82;;
1701;SDS011;848;48.354;10.064;2023-05-07T07:47:46;12.57;;;7.95;;
1701;SDS011;848;48.354;10.064;2023-05-07T07:50:13;16.45;;;7.70;;
1701;SDS011;848;48.354;10.064;2023-05-07T07:52:40;10.98;;;7.35;;
1701;SDS011;848;48.354;10.064;2023-05-07T07:55:07;11.60;;;7.75;;
1701;SDS011;848;48.354;10.064;2023-05-07T07:57:35;12.20;;;7.60;;
1701;SDS011;848;48.354;10.064;2023-05-07T08:00:03;12.35;;;7.15;;
1701;SDS011;848;48.354;10.064;2023-05-07T08:02:32;11.25;;;7.55;;
1701;SDS011;848;48.354;10.064;2023-05-07T08:04:59;13.88;;;6.72;;
1701;SDS011;848;48.354;10.064;2023-05-07T08:07:26;12.15;;;8.25;;
1701;SDS011;848;48.354;10.064;2023-05-07T08:09:53;11.15;;;7.20;;
1701;SDS011;848;48.354;10.064;2023-05-07T08:12:19;13.95;;;7.80;;
1701;SDS011;848;48.354;10.064;2023-05-07T08:14:47;10.57;;;7.75;;
1701;SDS011;848;48.354;10.064;2023-05-07T08:17:15;10.75;;;7.15;;
1701;SDS011;848;48.354;10.064;2023-05-07T08:19:42;12.52;;;8.05;;
1701;SDS011;848;48.354;10.064;2023-05-07T08:22:09;11.90;;;7.60;;
1701;SDS011;848;48.354;10.064;2023-05-07T08:24:37;10.90;;;7.00;;
1701;SDS011;848;48.354;10.064;2023-05-07T08:27:03;12.35;;;8.55;;
1701;SDS011;848;48.354;10.064;2023-05-07T08:29:30;14.43;;;7.68;;
1701;SDS011;848;48.354;10.064;2023-05-07T08:31:57;11.00;;;7.57;;
1701;SDS011;848;48.354;10.064;2023-05-07T08:34:25;11.10;;;7.47;;
1701;SDS011;848;48.354;10.064;2023-05-07T08:36:52;11.95;;;8.25;;
1701;SDS011;848;48.354;10.064;2023-05-07T08:39:20;14.43;;;7.80;;
1701;SDS011;848;48.354;10.064;2023-05-07T08:41:47;12.27;;;8.07;;
1701;SDS011;848;48.354;10.064;2023-05-07T08:44:18;12.90;;;8.30;;
1701;SDS011;848;48.354;10.064;2023-05-07T08:46:48;13.35;;;9.02;;
1701;SDS011;848;48.354;10.064;2023-05-07T08:49:19;11.25;;;7.40;;
1701;SDS011;848;48.354;10.064;2023-05-07T08:51:47;11.35;;;7.97;;
1701;SDS011;848;48.354;10.064;2023-05-07T08:54:15;15.27;;;8.43;;
1701;SDS011;848;48.354;10.064;2023-05-07T08:56:42;12.40;;;7.57;;
1701;SDS011;848;48.354;10.064;2023-05-07T08:59:10;15.77;;;8.98;;
1701;SDS011;848;48.354;10.064;2023-05-07T09:01:37;14.43;;;8.65;;
1701;SDS011;848;48.354;10.064;2023-05-07T09:04:04;13.45;;;9.25;;
1701;SDS011;848;48.354;10.064;2023-05-07T09:06:31;13.82;;;8.25;;
1701;SDS011;848;48.354;10.064;2023-05-07T09:09:00;11.98;;;7.88;;
1701;SDS011;848;48.354;10.064;2023-05-07T09:11:30;12.23;;;7.97;;
1701;SDS011;848;48.354;10.064;2023-05-07T09:13:57;13.07;;;8.02;;
1701;SDS011;848;48.354;10.064;2023-05-07T09:16:26;11.13;;;7.25;;
1701;SDS011;848;48.354;10.064;2023-05-07T09:18:57;10.95;;;6.55;;
1701;SDS011;848;48.354;10.064;2023-05-07T09:21:25;9.80;;;6.10;;
1701;SDS011;848;48.354;10.064;2023-05-07T09:23:52;11.30;;;5.93;;
1701;SDS011;848;48.354;10.064;2023-05-07T09:26:22;9.80;;;5.65;;
1701;SDS011;848;48.354;10.064;2023-05-07T09:28:50;9.70;;;5.78;;
1701;SDS011;848;48.354;10.064;2023-05-07T09:31:17;10.43;;;6.38;;
1701;SDS011;848;48.354;10.064;2023-05-07T09:33:44;9.70;;;5.93;;
1701;SDS011;848;48.354;10.064;2023-05-07T09:36:10;9.95;;;6.03;;
1701;SDS011;848;48.354;10.064;2023-05-07T09:38:38;8.40;;;5.18;;
1701;SDS011;848;48.354;10.064;2023-05-07T09:41:05;10.90;;;5.45;;
1701;SDS011;848;48.354;10.064;2023-05-07T09:43:35;8.52;;;4.80;;
1701;SDS011;848;48.354;10.064;2023-05-07T09:46:06;8.50;;;5.30;;
1701;SDS011;848;48.354;10.064;2023-05-07T09:48:37;10.27;;;5.80;;
1701;SDS011;848;48.354;10.064;2023-05-07T09:51:22;8.95;;;4.60;;
1701;SDS011;848;48.354;10.064;2023-05-07T09:53:52;10.85;;;5.28;;
1701;SDS011;848;48.354;10.064;2023-05-07T09:56:20;9.52;;;5.55;;
1701;SDS011;848;48.354;10.064;2023-05-07T09:58:49;10.02;;;6.15;;
1701;SDS011;848;48.354;10.064;2023-05-07T10:01:19;15.25;;;5.03;;
1701;SDS011;848;48.354;10.064;2023-05-07T10:03:47;9.02;;;4.50;;
1701;SDS011;848;48.354;10.064;2023-05-07T10:06:16;9.57;;;4.28;;
1701;SDS011;848;48.354;10.064;2023-05-07T10:08:43;10.10;;;4.85;;
1701;SDS011;848;48.354;10.064;2023-05-07T10:11:11;7.70;;;4.43;;
1701;SDS011;848;48.354;10.064;2023-05-07T10:13:38;11.43;;;5.68;;
1701;SDS011;848;48.354;10.064;2023-05-07T10:16:08;10.43;;;6.10;;
1701;SDS011;848;48.354;10.064;2023-05-07T10:18:35;9.88;;;5.90;;
1701;SDS011;848;48.354;10.064;2023-05-07T10:21:06;8.60;;;4.78;;
1701;SDS011;848;48.354;10.064;2023-05-07T10:23:37;7.57;;;4.10;;
1701;SDS011;848;48.354;10.064;2023-05-07T10:26:06;9.02;;;4.43;;
1701;SDS011;848;48.354;10.064;2023-05-07T10:28:35;7.00;;;3.40;;
1701;SDS011;848;48.354;10.064;2023-05-07T10:31:14;7.28;;;3.13;;
1701;SDS011;848;48.354;10.064;2023-05-07T10:33:52;7.78;;;3.90;;
1701;SDS011;848;48.354;10.064;2023-05-07T10:36:22;8.35;;;4.65;;
1701;SDS011;848;48.354;10.064;2023-05-07T10:38:50;7.95;;;4.40;;
1701;SDS011;848;48.354;10.064;2023-05-07T10:41:17;9.38;;;4.32;;
1701;SDS011;848;48.354;10.064;2023-05-07T10:43:44;7.40;;;3.45;;
1701;SDS011;848;48.354;10.064;2023-05-07T10:46:15;7.28;;;3.63;;
1701;SDS011;848;48.354;10.064;2023-05-07T10:51:33;9.25;;;4.97;;
1701;SDS011;848;48.354;10.064;2023-05-07T10:54:22;10.02;;;4.90;;
1701;SDS011;848;48.354;10.064;2023-05-07T10:56:49;7.85;;;4.03;;
1701;SDS011;848;48.354;10.064;2023-05-07T10:59:30;10.13;;;3.85;;
1701;SDS011;848;48.354;10.064;2023-05-07T11:02:00;8.65;;;4.10;;
1701;SDS011;848;48.354;10.064;2023-05-07T11:04:29;7.43;;;3.45;;
1701;SDS011;848;48.354;10.064;2023-05-07T11:07:21;8.27;;;4.30;;
1701;SDS011;848;48.354;10.064;2023-05-07T11:09:57;10.07;;;4.07;;
1701;SDS011;848;48.354;10.064;2023-05-07T11:15:32;7.82;;;4.05;;
1701;SDS011;848;48.354;10.064;2023-05-07T11:18:09;10.23;;;4.72;;
1701;SDS011;848;48.354;10.064;2023-05-07T11:20:44;9.30;;;4.13;;
1701;SDS011;848;48.354;10.064;2023-05-07T11:26:27;6.82;;;3.42;;
1701;SDS011;848;48.354;10.064;2023-05-07T11:28:56;8.10;;;3.40;;
1701;SDS011;848;48.354;10.064;2023-05-07T11:31:26;7.70;;;3.92;;
1701;SDS011;848;48.354;10.064;2023-05-07T11:33:56;9.57;;;3.70;;
1701;SDS011;848;48.354;10.064;2023-05-07T11:36:24;8.10;;;4.10;;
1701;SDS011;848;48.354;10.064;2023-05-07T11:38:52;7.85;;;3.65;;
1701;SDS011;848;48.354;10.064;2023-05-07T11:41:19;7.65;;;4.47;;
1701;SDS011;848;48.354;10.064;2023-05-07T11:43:53;11.43;;;5.90;;
1701;SDS011;848;48.354;10.064;2023-05-07T11:46:22;9.07;;;4.88;;
1701;SDS011;848;48.354;10.064;2023-05-07T11:48:49;9.27;;;4.63;;
1701;SDS011;848;48.354;10.064;2023-05-07T11:51:20;9.15;;;4.18;;
1701;SDS011;848;48.354;10.064;2023-05-07T11:53:48;8.70;;;5.05;;
1701;SDS011;848;48.354;10.064;2023-05-07T11:56:17;8.27;;;4.00;;
1701;SDS011;848;48.354;10.064;2023-05-07T11:58:45;8.88;;;4.20;;
1701;SDS011;848;48.354;10.064;2023-05-07T12:01:13;8.73;;;4.80;;
1701;SDS011;848;48.354;10.064;2023-05-07T12:03:42;7.82;;;3.90;;
1701;SDS011;848;48.354;10.064;2023-05-07T12:06:10;8.20;;;4.47;;
1701;SDS011;848;48.354;10.064;2023-05-07T12:08:39;9.38;;;4.95;;
1701;SDS011;848;48.354;10.064;2023-05-07T12:11:07;10.40;;;4.43;;
1701;SDS011;848;48.354;10.064;2023-05-07T12:13:36;9.50;;;4.28;;
1701;SDS011;848;48.354;10.064;2023-05-07T12:16:03;8.73;;;3.70;;
1701;SDS011;848;48.354;10.064;2023-05-07T12:18:32;8.45;;;4.10;;
1701;SDS011;848;48.354;10.064;2023-05-07T12:21:00;8.25;;;3.75;;
1701;SDS011;848;48.354;10.064;2023-05-07T12:23:27;8.98;;;4.00;;
1701;SDS011;848;48.354;10.064;2023-05-07T12:25:56;9.38;;;3.58;;
1701;SDS011;848;48.354;10.064;2023-05-07T12:28:23;8.50;;;3.85;;
1701;SDS011;848;48.354;10.064;2023-05-07T12:30:50;10.82;;;3.40;;
1701;SDS011;848;48.354;10.064;2023-05-07T12:33:19;7.35;;;3.67;;
1701;SDS011;848;48.354;10.064;2023-05-07T12:35:49;7.57;;;3.10;;
1701;SDS011;848;48.354;10.064;2023-05-07T12:38:16;8.80;;;3.65;;
1701;SDS011;848;48.354;10.064;2023-05-07T12:40:44;6.78;;;3.70;;
1701;SDS011;848;48.354;10.064;2023-05-07T12:43:17;9.82;;;3.80;;
1701;SDS011;848;48.354;10.064;2023-05-07T12:45:44;8.45;;;3.63;;
1701;SDS011;848;48.354;10.064;2023-05-07T12:48:12;7.82;;;3.42;;
1701;SDS011;848;48.354;10.064;2023-05-07T12:50:39;8.15;;;3.10;;
1701;SDS011;848;48.354;10.064;2023-05-07T12:53:07;10.43;;;2.90;;
1701;SDS011;848;48.354;10.064;2023-05-07T12:55:40;7.15;;;3.00;;
1701;SDS011;848;48.354;10.064;2023-05-07T12:58:08;6.30;;;2.70;;
1701;SDS011;848;48.354;10.064;2023-05-07T13:00:42;7.32;;;3.25;;
1701;SDS011;848;48.354;10.064;2023-05-07T13:03:10;6.18;;;2.83;;
1701;SDS011;848;48.354;10.064;2023-05-07T13:05:37;7.50;;;3.65;;
1701;SDS011;848;48.354;10.064;2023-05-07T13:08:04;7.68;;;3.75;;
1701;SDS011;848;48.354;10.064;2023-05-07T13:10:31;7.05;;;3.65;;
1701;SDS011;848;48.354;10.064;2023-05-07T13:12:59;7.38;;;2.95;;
1701;SDS011;848;48.354;10.064;2023-05-07T13:15:26;7.82;;;3.10;;
1701;SDS011;848;48.354;10.064;2023-05-07T13:17:54;7.68;;;3.40;;
1701;SDS011;848;48.354;10.064;2023-05-07T13:20:21;8.25;;;3.50;;
1701;SDS011;848;48.354;10.064;2023-05-07T13:22:49;7.53;;;3.92;;
1701;SDS011;848;48.354;10.064;2023-05-07T13:25:16;7.55;;;3.17;;
1701;SDS011;848;48.354;10.064;2023-05-07T13:27:42;8.95;;;3.35;;
1701;SDS011;848;48.354;10.064;2023-05-07T13:30:09;7.82;;;3.42;;
1701;SDS011;848;48.354;10.064;2023-05-07T13:32:36;9.80;;;3.55;;
1701;SDS011;848;48.354;10.064;2023-05-07T13:35:05;6.68;;;2.95;;
1701;SDS011;848;48.354;10.064;2023-05-07T13:37:33;9.82;;;2.90;;
1701;SDS011;848;48.354;10.064;2023-05-07T13:40:00;9.98;;;3.55;;
1701;SDS011;848;48.354;10.064;2023-05-07T13:42:27;6.70;;;3.20;;
1701;SDS011;848;48.354;10.064;2023-05-07T13:44:54;7.05;;;2.60;;
1701;SDS011;848;48.354;10.064;2023-05-07T13:47:21;6.57;;;2.78;;
1701;SDS011;848;48.354;10.064;2023-05-07T13:49:48;6.22;;;2.58;;
1701;SDS011;848;48.354;10.064;2023-05-07T13:52:17;7.15;;;2.97;;
1701;SDS011;848;48.354;10.064;2023-05-07T13:54:45;6.63;;;2.45;;
1701;SDS011;848;48.354;10.064;2023-05-07T13:57:12;6.40;;;2.95;;
1701;SDS011;848;48.354;10.064;2023-05-07T13:59:39;12.93;;;3.78;;
1701;SDS011;848;48.354;10.064;2023-05-07T14:02:06;9.45;;;3.13;;
1701;SDS011;848;48.354;10.064;2023-05-07T14:04:34;6.75;;;2.95;;
1701;SDS011;848;48.354;10.064;2023-05-07T14:07:01;8.60;;;3.03;;
1701;SDS011;848;48.354;10.064;2023-05-07T14:09:29;7.45;;;3.13;;
1701;SDS011;848;48.354;10.064;2023-05-07T14:11:56;8.45;;;3.00;;
1701;SDS011;848;48.354;10.064;2023-05-07T14:14:24;7.88;;;2.80;;
1701;SDS011;848;48.354;10.064;2023-05-07T14:16:50;8.32;;;3.17;;
1701;SDS011;848;48.354;10.064;2023-05-07T14:19:17;7.90;;;2.88;;
1701;SDS011;848;48.354;10.064;2023-05-07T14:21:44;6.40;;;2.53;;
1701;SDS011;848;48.354;10.064;2023-05-07T14:24:11;6.18;;;2.72;;
1701;SDS011;848;48.354;10.064;2023-05-07T14:26:39;5.97;;;2.35;;
1701;SDS011;848;48.354;10.064;2023-05-07T14:29:06;6.10;;;2.10;;
1701;SDS011;848;48.354;10.064;2023-05-07T14:31:33;7.10;;;2.70;;
1701;SDS011;848;48.354;10.064;2023-05-07T14:34:00;6.72;;;2.30;;
1701;SDS011;848;48.354;10.064;2023-05-07T14:36:27;8.10;;;2.50;;
1701;SDS011;848;48.354;10.064;2023-05-07T14:38:55;7.55;;;2.75;;
1701;SDS011;848;48.354;10.064;2023-05-07T14:41:24;7.13;;;2.60;;
1701;SDS011;848;48.354;10.064;2023-05-07T14:43:52;6.55;;;2.92;;
1701;SDS011;848;48.354;10.064;2023-05-07T14:46:19;9.40;;;3.00;;
1701;SDS011;848;48.354;10.064;2023-05-07T14:48:46;8.93;;;2.97;;
1701;SDS011;848;48.354;10.064;2023-05-07T14:51:13;7.30;;;2.85;;
1701;SDS011;848;48.354;10.064;2023-05-07T14:53:40;7.80;;;2.80;;
1701;SDS011;848;48.354;10.064;2023-05-07T14:56:07;8.13;;;3.42;;
1701;SDS011;848;48.354;10.064;2023-05-07T14:58:34;7.50;;;2.70;;
1701;SDS011;848;48.354;10.064;2023-05-07T15:01:03;6.38;;;2.60;;
1701;SDS011;848;48.354;10.064;2023-05-07T15:03:30;6.30;;;2.90;;
1701;SDS011;848;48.354;10.064;2023-05-07T15:05:57;6.80;;;2.70;;
1701;SDS011;848;48.354;10.064;2023-05-07T15:08:24;8.05;;;3.05;;
1701;SDS011;848;48.354;10.064;2023-05-07T15:10:51;6.45;;;3.20;;
1701;SDS011;848;48.354;10.064;2023-05-07T15:13:18;7.63;;;2.97;;
1701;SDS011;848;48.354;10.064;2023-05-07T15:15:45;6.65;;;2.95;;
1701;SDS011;848;48.354;10.064;2023-05-07T15:18:13;7.10;;;2.88;;